• Join FlightAware (Why Join?)
  • Login
  • US Flag 
08:37AM EDT


 

Airport Tracker/Info


-or-


 

Live Flight TrackerFlight Track Log ✈ FLG3861 ✈ 05-Nov-2013 ✈ KDTW - KBGM

Flight Track Log - Related Links

Times and Time Zones

All times are in EST time to prevent confusion due to time zone crossing. See the FLG3861 flight status page for this flight to view local times or setup timezone preferences in your user account.

Time Position Orientation Groundspeed Altitude Reporting Facility
EST Latitude Longitude Course Direction KTS MPH feet Rate Location/Type
09:54PM 42.2028 -83.3553 174° South 152 175 1,600  Level Cleveland Center
09:55PM 42.1819 -83.3525 174° South 167 192 3,000 2,340 Climbing Cleveland Center
09:56PM 42.1325 -83.3383 168° South 185 213 5,100 2,640 Climbing Cleveland Center
09:57PM 42.0989 -83.2550 119° Southeast 274 315 8,400 2,820 Climbing Cleveland Center
09:58PM 42.1344 -83.1453 66° East 318 366 11,000 2,040 Climbing Cleveland Center
09:59PM 42.1769 -83.0194 65° Northeast 376 433 12,600 1,620 Climbing Cleveland Center
10:00PM 42.2214 -82.8906 65° Northeast 384 442 14,400 1,740 Climbing Cleveland Center
10:01PM 42.2675 -82.7511 66° East 407 468 16,200 1,620 Climbing Cleveland Center
10:02PM 42.3153 -82.6092 65° Northeast 415 478 17,800 1,320 Climbing Cleveland Center
10:03PM 42.3633 -82.4617 66° East 427 491 19,000 1,260 Climbing Cleveland Center
10:04PM 42.3619 -82.2994 91° East 436 502 20,400 1,320 Climbing Cleveland Center
10:05PM 42.3539 -82.1206 93° East 436 502 21,800 1,140 Climbing Cleveland Center
10:06PM 42.3458 -81.9514 94° East 443 510 22,800 540 Climbing Cleveland Center
10:07PM 42.3389 -81.7742 93° East 463 533 23,000 60 Climbing Cleveland Center
10:08PM 42.3306 -81.5844 93° East 490 564 23,000  Level Cleveland Center
10:09PM 42.3219 -81.3908 93° East 506 582 23,000  Level Cleveland Center
10:10PM 42.3122 -81.1972 94° East 510 587 23,000  Level Cleveland Center
10:11PM 42.3031 -81.0058 94° East 506 582 23,000  Level Cleveland Center
10:12PM 42.2922 -80.8147 94° East 504 580 23,000 420 Level Cleveland Center
10:13PM 42.2822 -80.6269 94° East 498 573 23,900 720 Climbing Cleveland Center
10:14PM 42.2719 -80.4403 94° East 494 568 24,500 540 Climbing Cleveland Center
10:15PM 42.2617 -80.2483 94° East 505 581 25,000 240 Climbing Cleveland Center
10:16PM 42.2467 -80.0161 95° East 523 602 25,000  Level Cleveland Center
10:17PM 42.2339 -79.8133 95° East 533 613 25,000  Level Cleveland Center
10:18PM 42.2211 -79.6128 95° East 538 619 25,000  Level Cleveland Center
10:19PM 42.2083 -79.4117 95° East 540 621 25,000  Level Cleveland Center
10:20PM 42.1953 -79.2108 95° East 539 620 25,000  Level Cleveland Center
10:21PM 42.1906 -79.0089 92° East 539 620 25,000  Level Cleveland Center
10:22PM 42.1961 -78.7942 88° East 535 616 25,000  Level Cleveland Center
10:23PM 42.1994 -78.5947 89° East 536 617 25,000  Level Cleveland Center
10:24PM 42.2017 -78.3958 89° East 535 616 25,000  Level Cleveland Center
10:25PM 42.2036 -78.1967 89° East 535 616 25,000  Level Cleveland Center
10:26PM 42.2064 -78.0022 89° East 528 608 25,000 -300 Level Cleveland Center
10:27PM 42.2078 -77.8097 89° East 521 600 24,500 -1,080 Descending Cleveland Center
10:28PM 42.2097 -77.6217 89° East 513 590 22,900 -1,680 Descending Cleveland Center
10:29PM 42.2106 -77.4167 90° East 461 531 21,100 -1,620 Descending Cleveland Center
10:30PM 42.2111 -77.2575 90° East 431 496 19,700 -1,500 Descending Cleveland Center
10:31PM 42.2117 -77.1042 90° East 416 479 18,100 -1,380 Descending Cleveland Center
10:32PM 42.2122 -76.9561 90° East 402 463 17,000 -1,260 Descending Cleveland Center
10:33PM 42.2117 -76.8092 90° East 395 455 15,600 -1,500 Descending Cleveland Center
10:34PM 42.2128 -76.6656 89° East 389 448 14,000 -1,560 Descending Cleveland Center
10:35PM 42.2283 -76.5275 81° East 373 429 12,500 -1,680 Descending Cleveland Center
10:36PM 42.2417 -76.3914 82° East 353 406 10,600 -2,220 Descending Cleveland Center
10:37PM 42.2533 -76.2772 82° East 315 362 8,100 -2,700 Descending Cleveland Center
10:38PM 42.2744 -76.1747 74° East 295 339 5,200 -2,400 Descending Cleveland Center
10:39PM 42.3142 -76.0914 57° Northeast 274 315 3,300 -1,020 Descending Cleveland Center
10:40PM 42.2792 -76.0450 136° Southeast 231 266 3,200 -360 Descending Cleveland Center
10:41PM 42.2489 -76.0150 144° Southeast 137 158 2,600 -420 Descending New York Center
10:42PM 42.2211 -75.9819 139° Southeast 122 140 2,400 -240 Descending New York Center